createdAt,value
2022-11-29T00:00:56.353Z,69.98
2022-11-29T00:03:33.706Z,70.05
2022-11-29T00:06:15.163Z,69.99
2022-11-29T00:08:51.038Z,70.18
2022-11-29T00:11:44.210Z,70.07
2022-11-29T00:14:23.722Z,70.07
2022-11-29T00:17:02.841Z,70.24
2022-11-29T00:19:41.148Z,70.21
2022-11-29T00:22:16.716Z,70.16
2022-11-29T00:24:53.846Z,70.18
2022-11-29T00:27:37.857Z,70.10
2022-11-29T00:30:22.086Z,70.13
2022-11-29T00:33:00.212Z,70.03
2022-11-29T00:35:51.522Z,70.14
2022-11-29T00:38:37.875Z,70.09
2022-11-29T00:41:15.711Z,70.16
2022-11-29T00:43:58.889Z,70.20
2022-11-29T00:46:33.018Z,70.01
2022-11-29T00:49:16.787Z,70.28
2022-11-29T00:51:53.172Z,70.34
2022-11-29T00:54:28.215Z,70.36
2022-11-29T00:57:01.639Z,70.31
2022-11-29T00:59:35.023Z,70.05
2022-11-29T01:02:08.553Z,70.43
2022-11-29T01:04:42.377Z,70.36
2022-11-29T01:07:15.663Z,69.98
2022-11-29T01:09:50.542Z,70.22
2022-11-29T01:12:24.062Z,70.07
2022-11-29T01:14:57.478Z,70.27
2022-11-29T01:17:30.910Z,70.18
2022-11-29T01:20:05.220Z,70.36
2022-11-29T01:22:39.196Z,70.23
2022-11-29T01:25:14.647Z,69.96
2022-11-29T01:27:48.260Z,70.24
2022-11-29T01:30:21.857Z,70.26
2022-11-29T01:32:55.265Z,70.26
2022-11-29T01:35:28.737Z,70.10
2022-11-29T01:38:02.125Z,70.55
2022-11-29T01:40:36.976Z,70.42
2022-11-29T01:43:17.431Z,70.22
2022-11-29T01:45:51.777Z,70.31
2022-11-29T01:48:30.755Z,70.47
2022-11-29T01:51:04.504Z,70.38
2022-11-29T01:53:37.992Z,70.40
2022-11-29T01:56:15.994Z,70.51
2022-11-29T01:58:49.755Z,70.32
2022-11-29T02:01:23.208Z,70.51
2022-11-29T02:03:57.021Z,70.34
2022-11-29T02:06:31.664Z,70.43
2022-11-29T02:09:06.008Z,70.52
2022-11-29T02:12:04.643Z,70.55
2022-11-29T02:14:52.779Z,70.41
2022-11-29T02:17:35.270Z,70.45
2022-11-29T02:20:33.519Z,70.50
2022-11-29T02:23:27.886Z,70.42
2022-11-29T02:26:16.748Z,70.50
2022-11-29T02:29:13.690Z,70.60
2022-11-29T02:32:33.494Z,70.49
2022-11-29T02:35:25.152Z,70.33
2022-11-29T02:38:21.691Z,70.38
2022-11-29T02:41:22.997Z,70.43
2022-11-29T02:44:31.900Z,70.23
2022-11-29T02:47:17.013Z,70.58
2022-11-29T02:50:16.190Z,70.53
2022-11-29T02:53:01.690Z,70.72
2022-11-29T02:55:43.178Z,70.59
2022-11-29T02:58:25.103Z,70.63
2022-11-29T03:01:04.099Z,70.48
2022-11-29T03:03:42.318Z,70.71
2022-11-29T03:06:23.475Z,70.76
2022-11-29T03:09:07.687Z,70.73
2022-11-29T03:11:49.801Z,70.63
2022-11-29T03:14:27.206Z,70.67
2022-11-29T03:17:08.591Z,70.66
2022-11-29T03:20:01.104Z,70.55
2022-11-29T03:22:45.184Z,70.57
2022-11-29T03:25:27.425Z,70.50
2022-11-29T03:28:04.302Z,70.52
2022-11-29T03:30:41.392Z,70.72
2022-11-29T03:33:23.960Z,70.77
2022-11-29T03:36:05.894Z,70.83
2022-11-29T03:38:42.080Z,70.56
2022-11-29T03:41:25.169Z,70.67
2022-11-29T03:44:04.645Z,70.53
2022-11-29T03:46:43.642Z,70.63
2022-11-29T03:49:24.075Z,70.57
2022-11-29T03:52:03.992Z,70.76
2022-11-29T03:54:49.318Z,70.64
2022-11-29T03:57:32.855Z,70.69
2022-11-29T04:00:09.589Z,70.67
2022-11-29T04:03:09.731Z,70.77
2022-11-29T04:06:15.326Z,70.81
2022-11-29T04:09:16.222Z,70.68
2022-11-29T04:12:22.502Z,70.70
2022-11-29T04:15:31.049Z,70.57
2022-11-29T04:18:27.276Z,70.56
2022-11-29T04:21:29.400Z,70.77
2022-11-29T04:24:50.033Z,70.61
2022-11-29T04:27:55.906Z,70.66
2022-11-29T04:30:38.711Z,70.81
2022-11-29T04:33:33.617Z,70.79
2022-11-29T04:36:32.429Z,70.80
2022-11-29T04:39:27.391Z,70.74
2022-11-29T04:42:28.121Z,70.91
2022-11-29T04:45:33.861Z,70.73
2022-11-29T04:48:32.193Z,70.83
2022-11-29T04:51:20.990Z,70.81
2022-11-29T04:54:01.590Z,70.87
2022-11-29T04:56:41.946Z,71.07
2022-11-29T04:59:22.466Z,71.04
2022-11-29T05:02:06.953Z,71.06
2022-11-29T05:04:52.183Z,71.12
2022-11-29T05:07:34.320Z,71.06
2022-11-29T05:10:24.348Z,71.08
2022-11-29T05:13:04.604Z,71.00
2022-11-29T05:15:58.694Z,71.01
2022-11-29T05:18:58.133Z,70.94
2022-11-29T05:21:43.476Z,71.17
2022-11-29T05:24:29.630Z,71.03
2022-11-29T05:27:12.968Z,71.23
2022-11-29T05:29:55.554Z,71.25
2022-11-29T05:32:34.901Z,71.10
2022-11-29T05:35:44.692Z,71.14
2022-11-29T05:38:39.613Z,71.23
2022-11-29T05:41:46.093Z,71.19
2022-11-29T05:44:33.113Z,71.18
2022-11-29T05:47:10.233Z,71.25
2022-11-29T05:49:50.626Z,71.32
2022-11-29T05:52:29.894Z,71.16
2022-11-29T05:55:22.256Z,71.50
2022-11-29T05:58:00.435Z,71.50
2022-11-29T06:00:42.607Z,71.26
2022-11-29T06:03:26.312Z,71.44
2022-11-29T06:06:08.266Z,71.31
2022-11-29T06:08:49.139Z,71.50
2022-11-29T06:11:29.797Z,71.46
2022-11-29T06:14:08.975Z,71.50
2022-11-29T06:16:58.423Z,71.59
2022-11-29T06:20:04.383Z,71.68
2022-11-29T06:22:57.773Z,71.51
2022-11-29T06:25:44.421Z,71.40
2022-11-29T06:28:38.790Z,71.57
2022-11-29T06:31:19.904Z,71.49
2022-11-29T06:34:03.761Z,71.57
2022-11-29T06:36:43.750Z,71.68
2022-11-29T06:39:17.751Z,71.55
2022-11-29T06:41:50.892Z,71.29
2022-11-29T06:44:26.791Z,71.43
2022-11-29T06:47:07.267Z,71.28
2022-11-29T06:49:45.694Z,71.40
2022-11-29T06:52:28.663Z,71.46
2022-11-29T06:55:11.979Z,71.58
2022-11-29T06:57:57.667Z,71.55
2022-11-29T07:00:39.659Z,71.53
2022-11-29T07:03:40.723Z,71.49
2022-11-29T07:06:21.650Z,71.61
2022-11-29T07:09:01.095Z,71.55
2022-11-29T07:11:36.911Z,71.63
2022-11-29T07:14:11.206Z,71.57
2022-11-29T07:16:57.162Z,71.58
2022-11-29T07:19:44.839Z,71.73
2022-11-29T07:22:37.831Z,71.56
2022-11-29T07:25:21.390Z,71.47
2022-11-29T07:28:01.454Z,71.53
2022-11-29T07:30:43.741Z,71.62
2022-11-29T07:33:27.209Z,71.61
2022-11-29T07:36:11.685Z,71.34
2022-11-29T07:39:00.558Z,71.46
2022-11-29T07:41:42.486Z,71.49
2022-11-29T07:44:27.212Z,71.41
2022-11-29T07:47:00.847Z,71.35
2022-11-29T07:49:35.888Z,71.34
2022-11-29T07:52:12.916Z,71.30
2022-11-29T07:54:46.837Z,71.41
2022-11-29T07:57:21.288Z,71.35
2022-11-29T07:59:54.806Z,71.33
2022-11-29T08:02:30.044Z,71.14
2022-11-29T08:05:05.392Z,71.29
2022-11-29T08:07:40.129Z,71.37
2022-11-29T08:10:17.020Z,71.18
2022-11-29T08:12:52.497Z,71.38
2022-11-29T08:15:29.067Z,71.34
2022-11-29T08:18:03.225Z,71.19
2022-11-29T08:20:39.412Z,71.21
2022-11-29T08:23:14.266Z,71.07
2022-11-29T08:25:48.656Z,70.99
2022-11-29T08:28:22.377Z,70.95
2022-11-29T08:31:02.714Z,71.05
2022-11-29T08:33:37.312Z,70.95
2022-11-29T08:36:15.262Z,70.93
2022-11-29T08:38:48.973Z,70.83
2022-11-29T08:41:22.469Z,70.78
2022-11-29T08:43:56.009Z,70.89
2022-11-29T08:46:50.231Z,70.82
2022-11-29T08:49:23.851Z,70.57
2022-11-29T08:52:12.665Z,70.83
2022-11-29T08:54:46.386Z,70.79
2022-11-29T08:57:41.440Z,70.80
2022-11-29T09:00:16.410Z,70.70
2022-11-29T09:02:50.088Z,70.58
2022-11-29T09:05:23.607Z,70.72
2022-11-29T09:08:00.212Z,70.56
2022-11-29T09:10:33.830Z,70.67
2022-11-29T09:13:07.577Z,70.35
2022-11-29T09:15:43.659Z,70.42
2022-11-29T09:18:17.340Z,70.25
2022-11-29T09:20:50.857Z,70.35
2022-11-29T09:23:25.933Z,70.41
2022-11-29T09:25:59.489Z,70.29
2022-11-29T09:28:33.437Z,70.35
2022-11-29T09:31:07.842Z,70.30
2022-11-29T09:33:41.618Z,70.03
2022-11-29T09:36:16.836Z,69.89
2022-11-29T09:38:51.873Z,69.96
2022-11-29T09:41:43.073Z,69.99
2022-11-29T09:44:29.861Z,69.91
2022-11-29T09:47:20.325Z,69.67
2022-11-29T09:50:16.613Z,69.57
2022-11-29T09:53:06.251Z,69.51
2022-11-29T09:55:52.128Z,69.52
2022-11-29T09:58:31.433Z,69.40
2022-11-29T10:01:09.660Z,69.57
2022-11-29T10:03:46.964Z,69.33
2022-11-29T10:06:27.158Z,69.54
2022-11-29T10:09:16.118Z,69.46
2022-11-29T10:12:07.462Z,69.19
2022-11-29T10:14:47.922Z,69.22
2022-11-29T10:17:35.188Z,69.30
2022-11-29T10:20:24.277Z,69.35
2022-11-29T10:23:02.756Z,68.92
2022-11-29T10:25:43.711Z,69.12
2022-11-29T10:28:21.229Z,69.00
2022-11-29T10:30:56.956Z,69.05
2022-11-29T10:33:35.490Z,68.95
2022-11-29T10:36:20.282Z,69.07
2022-11-29T10:38:59.633Z,69.00
2022-11-29T10:41:34.402Z,69.02
2022-11-29T10:44:17.358Z,69.05
2022-11-29T10:46:52.808Z,68.75
2022-11-29T10:49:36.717Z,68.67
2022-11-29T10:52:22.296Z,68.75
2022-11-29T10:54:59.814Z,68.67
2022-11-29T10:58:00.315Z,68.83
2022-11-29T11:00:48.036Z,68.87
2022-11-29T11:03:37.422Z,68.61
2022-11-29T11:06:23.577Z,68.56
2022-11-29T11:09:20.370Z,68.57
2022-11-29T11:11:56.143Z,68.64
2022-11-29T11:14:33.155Z,68.62
2022-11-29T11:17:23.647Z,68.73
2022-11-29T11:20:00.994Z,68.49
2022-11-29T11:22:36.251Z,68.58
2022-11-29T11:25:29.015Z,68.74
2022-11-29T11:28:15.830Z,68.76
2022-11-29T11:30:53.554Z,68.69
2022-11-29T11:33:30.467Z,68.68
2022-11-29T11:36:10.151Z,68.66
2022-11-29T11:38:54.629Z,68.42
2022-11-29T11:41:44.134Z,68.34
2022-11-29T11:47:28.395Z,68.41
2022-11-29T11:50:14.987Z,68.62
2022-11-29T11:52:55.610Z,68.31
2022-11-29T11:55:50.186Z,68.40
2022-11-29T11:58:25.005Z,68.48
2022-11-29T12:01:06.908Z,68.59
2022-11-29T12:03:57.613Z,68.47
2022-11-29T12:06:41.274Z,68.47
2022-11-29T12:09:29.235Z,68.44
2022-11-29T12:12:17.956Z,68.35
2022-11-29T12:14:56.987Z,68.24
2022-11-29T12:17:40.411Z,68.51
2022-11-29T12:20:36.936Z,68.31
2022-11-29T12:23:35.314Z,68.17
2022-11-29T12:26:48.578Z,68.23
2022-11-29T12:29:17.268Z,68.19
2022-11-29T12:32:07.580Z,68.17
2022-11-29T12:35:13.656Z,68.05
2022-11-29T12:37:57.939Z,68.04
2022-11-29T12:40:41.774Z,68.31
2022-11-29T12:43:29.976Z,68.22
2022-11-29T12:46:13.790Z,68.36
2022-11-29T12:48:54.187Z,68.29
2022-11-29T12:51:36.577Z,68.26
2022-11-29T12:54:29.729Z,68.24
2022-11-29T12:57:12.171Z,68.20
2022-11-29T13:00:09.749Z,68.22
2022-11-29T13:02:53.892Z,68.26
2022-11-29T13:05:43.461Z,68.33
2022-11-29T13:08:44.362Z,68.44
2022-11-29T13:11:23.395Z,68.23
2022-11-29T13:14:34.541Z,68.48
2022-11-29T13:17:02.911Z,68.33
2022-11-29T13:19:41.912Z,68.21
2022-11-29T13:22:19.287Z,68.18
2022-11-29T13:24:57.752Z,68.28
2022-11-29T13:27:36.465Z,68.22
2022-11-29T13:30:16.039Z,68.13
2022-11-29T13:33:00.161Z,68.12
2022-11-29T13:35:41.339Z,68.06
2022-11-29T13:38:20.030Z,68.14
2022-11-29T13:40:59.490Z,68.21
2022-11-29T13:43:40.876Z,67.97
2022-11-29T13:46:24.306Z,67.98
2022-11-29T13:48:57.920Z,68.10
2022-11-29T13:51:34.709Z,68.00
2022-11-29T13:54:26.452Z,68.11
2022-11-29T13:57:03.984Z,67.95
2022-11-29T13:59:47.132Z,67.88
2022-11-29T14:02:32.191Z,67.95
2022-11-29T14:05:08.082Z,67.92
2022-11-29T14:08:23.062Z,67.88
2022-11-29T14:10:59.641Z,67.97
2022-11-29T14:13:38.517Z,68.03
2022-11-29T14:16:21.019Z,68.08
2022-11-29T14:19:32.871Z,67.93
2022-11-29T14:22:21.877Z,67.94
2022-11-29T14:25:11.795Z,67.94
2022-11-29T14:28:00.384Z,67.84
2022-11-29T14:30:52.011Z,67.95
2022-11-29T14:33:51.599Z,68.02
2022-11-29T14:36:48.179Z,67.86
2022-11-29T14:39:42.949Z,67.88
2022-11-29T14:42:19.319Z,67.76
2022-11-29T14:44:55.570Z,67.77
2022-11-29T14:47:32.841Z,67.75
2022-11-29T14:50:10.569Z,68.04
2022-11-29T14:52:52.816Z,67.93
2022-11-29T14:55:37.553Z,68.10
2022-11-29T14:58:22.925Z,67.86
2022-11-29T15:01:10.084Z,67.83
2022-11-29T15:03:50.968Z,67.93
2022-11-29T15:06:27.833Z,67.91
2022-11-29T15:09:07.410Z,67.99
2022-11-29T15:11:54.885Z,67.99
2022-11-29T15:14:38.255Z,68.01
2022-11-29T15:17:31.680Z,67.93
2022-11-29T15:20:29.697Z,68.10
2022-11-29T15:23:07.457Z,67.96
2022-11-29T15:25:48.887Z,67.83
2022-11-29T15:28:27.044Z,67.75
2022-11-29T15:31:07.189Z,68.02
2022-11-29T15:33:42.821Z,67.90
2022-11-29T15:36:19.798Z,68.04
2022-11-29T15:38:55.531Z,68.00
2022-11-29T15:41:32.368Z,67.97
2022-11-29T15:44:07.575Z,68.03
2022-11-29T15:46:41.037Z,67.83
2022-11-29T15:49:19.360Z,67.90
2022-11-29T15:51:58.235Z,67.94
2022-11-29T15:54:35.675Z,67.86
2022-11-29T15:57:17.229Z,67.82
2022-11-29T15:59:55.456Z,67.95
2022-11-29T16:02:31.692Z,67.72
2022-11-29T16:05:18.078Z,67.96
2022-11-29T16:07:56.072Z,67.90
2022-11-29T16:10:36.177Z,67.95
2022-11-29T16:13:33.320Z,67.70
2022-11-29T16:16:12.058Z,67.88
2022-11-29T16:18:48.177Z,68.06
2022-11-29T16:21:27.457Z,68.13
2022-11-29T16:24:15.547Z,67.86
2022-11-29T16:26:51.437Z,67.98
2022-11-29T16:29:33.291Z,67.91
2022-11-29T16:32:21.902Z,67.90
2022-11-29T16:35:17.070Z,67.84
2022-11-29T16:37:50.706Z,67.92
2022-11-29T16:40:30.920Z,68.00
2022-11-29T16:43:29.182Z,67.96
2022-11-29T16:49:05.443Z,67.97
2022-11-29T16:51:48.450Z,67.99
2022-11-29T16:54:26.465Z,67.91
2022-11-29T16:57:03.066Z,67.87
2022-11-29T16:59:40.710Z,67.73
2022-11-29T17:02:20.717Z,67.96
2022-11-29T17:04:57.077Z,67.79
2022-11-29T17:07:36.455Z,67.80
2022-11-29T17:10:14.935Z,67.78
2022-11-29T17:12:48.634Z,67.69
2022-11-29T17:15:22.088Z,67.88
2022-11-29T17:17:55.544Z,67.72
2022-11-29T17:20:30.509Z,67.64
2022-11-29T17:23:05.073Z,67.73
2022-11-29T17:25:38.471Z,67.72
2022-11-29T17:28:11.933Z,67.72
2022-11-29T17:30:45.495Z,67.64
2022-11-29T17:33:21.798Z,67.65
2022-11-29T17:36:04.577Z,67.74
2022-11-29T17:38:43.041Z,67.65
2022-11-29T17:41:21.044Z,67.70
2022-11-29T17:43:56.030Z,67.80
2022-11-29T17:46:31.176Z,67.81
2022-11-29T17:49:07.272Z,67.72
2022-11-29T17:51:53.421Z,67.90
2022-11-29T17:54:33.161Z,67.76
2022-11-29T17:57:06.603Z,67.66
2022-11-29T18:02:33.213Z,67.79
2022-11-29T18:05:07.707Z,67.76
2022-11-29T18:07:58.199Z,68.24
2022-11-29T18:10:31.805Z,67.95
2022-11-29T18:13:11.960Z,68.08
2022-11-29T18:15:45.377Z,67.86
2022-11-29T18:18:18.991Z,67.95
2022-11-29T18:20:53.627Z,67.92
2022-11-29T18:23:31.419Z,68.11
2022-11-29T18:26:09.820Z,68.19
2022-11-29T18:28:45.010Z,68.00
2022-11-29T18:31:21.626Z,67.92
2022-11-29T18:33:56.841Z,68.05
2022-11-29T18:36:32.363Z,68.04
2022-11-29T18:39:09.290Z,67.85
2022-11-29T18:41:44.554Z,67.91
2022-11-29T18:44:35.581Z,67.90
2022-11-29T18:47:09.728Z,67.95
2022-11-29T18:49:43.199Z,67.89
2022-11-29T18:52:16.731Z,67.97
2022-11-29T18:54:51.592Z,67.78
2022-11-29T18:57:25.033Z,67.99
2022-11-29T18:59:58.430Z,68.02
2022-11-29T19:02:31.892Z,67.90
2022-11-29T19:05:05.570Z,68.10
2022-11-29T19:07:39.030Z,68.08
2022-11-29T19:10:14.083Z,68.00
2022-11-29T19:12:47.543Z,68.09
2022-11-29T19:15:20.946Z,67.97
2022-11-29T19:17:54.644Z,68.11
2022-11-29T19:20:28.025Z,68.14
2022-11-29T19:23:01.459Z,68.00
2022-11-29T19:25:37.187Z,68.09
2022-11-29T19:28:14.072Z,67.87
2022-11-29T19:30:55.480Z,67.90
2022-11-29T19:33:29.035Z,68.08
2022-11-29T19:36:06.259Z,67.86
2022-11-29T19:38:40.541Z,67.86
2022-11-29T19:41:18.090Z,67.95
2022-11-29T19:43:52.144Z,67.87
2022-11-29T19:46:26.333Z,67.91
2022-11-29T19:49:02.859Z,68.03
2022-11-29T19:51:37.043Z,68.07
2022-11-29T19:54:13.529Z,68.26
2022-11-29T19:56:48.365Z,68.28
2022-11-29T19:59:21.780Z,68.37
2022-11-29T20:01:55.303Z,68.40
2022-11-29T20:04:28.789Z,68.20
2022-11-29T20:07:03.648Z,68.34
2022-11-29T20:09:37.113Z,68.19
2022-11-29T20:12:12.031Z,68.19
2022-11-29T20:14:45.466Z,68.32
2022-11-29T20:17:19.116Z,68.30
2022-11-29T20:19:52.600Z,68.07
2022-11-29T20:22:26.090Z,68.08
2022-11-29T20:24:59.621Z,67.98
2022-11-29T20:27:34.595Z,68.03
2022-11-29T20:30:10.520Z,68.32
2022-11-29T20:32:44.444Z,68.15
2022-11-29T20:35:18.019Z,68.05
2022-11-29T20:38:13.262Z,67.97
2022-11-29T20:41:02.339Z,68.00
2022-11-29T20:43:48.359Z,68.21
2022-11-29T20:46:22.518Z,68.47
2022-11-29T20:49:01.705Z,68.28
2022-11-29T20:51:44.138Z,68.27
2022-11-29T20:54:21.518Z,68.68
2022-11-29T20:56:55.046Z,68.10
2022-11-29T20:59:32.285Z,68.38
2022-11-29T21:02:08.803Z,68.20
2022-11-29T21:04:42.256Z,68.23
2022-11-29T21:07:15.689Z,68.27
2022-11-29T21:09:49.140Z,68.46
2022-11-29T21:12:26.291Z,68.26
2022-11-29T21:15:02.454Z,68.24
2022-11-29T21:17:36.691Z,68.26
2022-11-29T21:20:19.108Z,68.44
2022-11-29T21:23:01.418Z,68.40
2022-11-29T21:25:57.628Z,68.46
2022-11-29T21:28:39.012Z,68.58
2022-11-29T21:31:19.112Z,68.58
2022-11-29T21:33:54.662Z,68.38
2022-11-29T21:36:29.107Z,68.30
2022-11-29T21:39:05.379Z,68.32
2022-11-29T21:41:39.338Z,68.46
2022-11-29T21:44:18.769Z,68.60
2022-11-29T21:46:53.706Z,68.59
2022-11-29T21:49:27.110Z,68.58
2022-11-29T21:52:01.271Z,68.63
2022-11-29T21:54:35.356Z,68.63
2022-11-29T21:57:10.411Z,68.28
2022-11-29T21:59:44.853Z,68.57
2022-11-29T22:02:24.579Z,68.36
2022-11-29T22:05:02.582Z,68.37
2022-11-29T22:07:36.072Z,68.34
2022-11-29T22:10:13.510Z,68.53
2022-11-29T22:12:52.174Z,68.50
2022-11-29T22:15:25.928Z,68.35
2022-11-29T22:18:00.719Z,68.38
2022-11-29T22:20:34.162Z,68.64
2022-11-29T22:23:14.146Z,68.60
2022-11-29T22:25:48.047Z,68.67
2022-11-29T22:28:21.422Z,68.71
2022-11-29T22:31:02.204Z,68.64
2022-11-29T22:33:37.507Z,68.60
2022-11-29T22:36:13.263Z,68.42
2022-11-29T22:38:46.726Z,68.49
2022-11-29T22:41:20.237Z,68.54
2022-11-29T22:43:54.028Z,68.45
2022-11-29T22:46:36.105Z,68.67
2022-11-29T22:49:31.086Z,68.39
2022-11-29T22:52:11.431Z,68.60
2022-11-29T22:55:05.473Z,68.51
2022-11-29T22:57:46.394Z,68.62
2022-11-29T23:00:20.291Z,68.66
2022-11-29T23:02:58.213Z,68.69
2022-11-29T23:05:34.581Z,68.60
2022-11-29T23:08:16.141Z,68.59
2022-11-29T23:10:57.648Z,68.56
2022-11-29T23:13:35.328Z,68.48
2022-11-29T23:16:22.262Z,68.72
2022-11-29T23:19:00.114Z,68.29
2022-11-29T23:21:40.627Z,68.60
2022-11-29T23:24:18.873Z,68.63
2022-11-29T23:26:54.053Z,68.55
2022-11-29T23:29:31.815Z,68.61
2022-11-29T23:32:13.942Z,68.52
2022-11-29T23:34:51.018Z,68.62
2022-11-29T23:37:26.810Z,68.56
2022-11-29T23:40:02.135Z,68.57
2022-11-29T23:42:37.619Z,68.27
2022-11-29T23:45:17.338Z,68.61
2022-11-29T23:47:53.311Z,68.54
2022-11-29T23:50:34.102Z,68.58
2022-11-29T23:53:18.188Z,68.53
2022-11-29T23:55:59.088Z,68.53
2022-11-29T23:58:36.489Z,68.43
